createdAt,value
2023-03-12T00:01:50.188Z,96922.41
2023-03-12T00:04:36.367Z,96923.28
2023-03-12T00:07:21.956Z,96939.50
2023-03-12T00:10:07.936Z,96939.19
2023-03-12T00:12:53.582Z,96917.63
2023-03-12T00:15:39.594Z,96732.53
2023-03-12T00:18:25.295Z,96898.06
2023-03-12T00:21:11.079Z,96982.41
2023-03-12T00:23:56.976Z,96952.06
2023-03-12T00:26:42.778Z,96737.94
2023-03-12T00:29:28.566Z,96953.19
2023-03-12T00:32:14.520Z,96906.44
2023-03-12T00:34:59.790Z,96895.72
2023-03-12T00:37:45.154Z,96925.34
2023-03-12T00:40:30.697Z,96915.47
2023-03-12T00:43:15.945Z,97033.00
2023-03-12T00:46:01.423Z,96937.84
2023-03-12T00:48:46.868Z,96770.16
2023-03-12T00:51:32.239Z,96775.41
2023-03-12T00:54:17.858Z,96827.53
2023-03-12T00:57:03.519Z,96817.13
2023-03-12T00:59:48.845Z,96907.44
2023-03-12T01:02:34.104Z,96770.44
2023-03-12T01:05:19.648Z,96904.59
2023-03-12T01:08:07.267Z,96790.47
2023-03-12T01:10:52.792Z,97022.72
2023-03-12T01:13:38.481Z,96821.81
2023-03-12T01:16:28.086Z,96848.94
2023-03-12T01:19:13.688Z,97057.16
2023-03-12T01:21:59.027Z,96965.66
2023-03-12T01:24:44.505Z,96899.47
2023-03-12T01:27:29.834Z,96989.31
2023-03-12T01:30:15.412Z,96815.63
2023-03-12T01:33:00.991Z,96873.44
2023-03-12T01:35:46.536Z,96874.91
2023-03-12T01:38:32.535Z,97028.34
2023-03-12T01:41:18.766Z,97002.22
2023-03-12T01:44:05.323Z,96843.06
2023-03-12T01:46:51.084Z,97053.94
2023-03-12T01:49:41.569Z,96842.25
2023-03-12T01:52:35.088Z,97012.81
2023-03-12T01:55:20.775Z,96854.91
2023-03-12T01:58:07.951Z,96871.59
2023-03-12T02:00:53.856Z,97082.19
2023-03-12T02:03:39.905Z,97127.22
2023-03-12T02:06:53.676Z,97089.84
2023-03-12T02:09:43.014Z,97108.69
2023-03-12T02:12:28.550Z,97134.59
2023-03-12T02:15:14.118Z,96909.41
2023-03-12T02:17:59.892Z,97066.13
2023-03-12T02:21:20.270Z,97120.88
2023-03-12T02:24:32.077Z,97126.75
2023-03-12T02:27:19.278Z,96917.16
2023-03-12T02:30:05.580Z,97114.25
2023-03-12T02:32:52.228Z,97063.00
2023-03-12T02:35:38.474Z,96978.16
2023-03-12T02:38:45.295Z,97068.03
2023-03-12T02:41:38.330Z,97204.88
2023-03-12T02:44:33.428Z,96999.88
2023-03-12T02:47:19.723Z,97072.63
2023-03-12T02:50:05.762Z,96533.09
2023-03-12T02:52:51.622Z,97122.31
2023-03-12T02:55:37.317Z,97132.88
2023-03-12T02:58:22.672Z,97198.47
2023-03-12T03:01:08.195Z,97175.56
2023-03-12T03:03:54.571Z,97172.00
2023-03-12T03:06:43.799Z,97220.13
2023-03-12T03:09:30.015Z,97221.81
2023-03-12T03:12:16.132Z,96983.50
2023-03-12T03:15:01.749Z,97226.31
2023-03-12T03:17:47.472Z,97017.19
2023-03-12T03:20:32.904Z,97119.75
2023-03-12T03:23:18.262Z,97261.19
2023-03-12T03:26:03.867Z,97280.47
2023-03-12T03:28:50.550Z,97049.81
2023-03-12T03:31:36.279Z,97214.72
2023-03-12T03:34:21.969Z,97046.09
2023-03-12T03:37:07.644Z,97293.00
2023-03-12T03:39:54.495Z,97264.75
2023-03-12T03:42:40.467Z,97233.75
2023-03-12T03:45:27.537Z,97261.81
2023-03-12T03:48:15.041Z,97158.13
2023-03-12T03:51:06.139Z,97123.19
2023-03-12T03:53:54.069Z,97159.22
2023-03-12T03:56:40.887Z,97284.94
2023-03-12T03:59:27.128Z,97237.28
2023-03-12T04:02:12.540Z,97258.84
2023-03-12T04:04:59.957Z,97244.94
2023-03-12T04:07:46.801Z,97117.09
2023-03-12T04:10:33.895Z,97288.53
2023-03-12T04:13:19.939Z,97237.47
2023-03-12T04:16:06.410Z,97343.16
2023-03-12T04:18:51.988Z,97308.09
2023-03-12T04:21:39.687Z,97301.06
2023-03-12T04:24:26.386Z,97250.88
2023-03-12T04:27:12.050Z,97305.47
2023-03-12T04:29:59.126Z,97126.19
2023-03-12T04:32:44.667Z,97145.09
2023-03-12T04:35:30.758Z,97102.09
2023-03-12T04:38:16.724Z,97313.75
2023-03-12T04:41:06.027Z,97239.97
2023-03-12T04:43:52.014Z,97326.09
2023-03-12T04:46:39.175Z,97315.50
2023-03-12T04:49:25.023Z,97318.22
2023-03-12T04:52:12.601Z,97274.31
2023-03-12T04:55:00.441Z,97323.34
2023-03-12T04:57:46.047Z,97325.00
2023-03-12T05:00:31.944Z,97109.25
2023-03-12T05:03:18.254Z,97327.31
2023-03-12T05:06:05.298Z,97321.56
2023-03-12T05:08:51.418Z,97242.06
2023-03-12T05:11:39.580Z,97140.44
2023-03-12T05:14:28.146Z,97345.97
2023-03-12T05:17:13.640Z,97341.34
2023-03-12T05:19:59.708Z,97323.53
2023-03-12T05:22:45.744Z,97356.66
2023-03-12T05:25:31.969Z,97373.81
2023-03-12T05:28:18.036Z,97375.69
2023-03-12T05:31:10.117Z,97403.97
2023-03-12T05:33:56.116Z,97129.09
2023-03-12T05:36:41.948Z,97359.47
2023-03-12T05:39:28.350Z,97144.94
2023-03-12T05:42:17.755Z,97364.75
2023-03-12T05:45:05.520Z,97365.44
2023-03-12T05:47:51.793Z,97165.09
2023-03-12T05:50:37.859Z,97238.44
2023-03-12T05:53:24.147Z,97290.41
2023-03-12T05:56:13.868Z,97363.97
2023-03-12T05:58:59.485Z,97224.34
2023-03-12T06:01:45.119Z,97348.22
2023-03-12T06:04:31.067Z,97404.09
2023-03-12T06:07:16.437Z,97402.22
2023-03-12T06:10:01.769Z,97392.56
2023-03-12T06:12:47.077Z,97433.75
2023-03-12T06:15:32.783Z,97431.19
2023-03-12T06:18:18.863Z,97235.75
2023-03-12T06:21:09.019Z,97427.50
2023-03-12T06:23:55.230Z,97444.59
2023-03-12T06:26:48.355Z,97419.28
2023-03-12T06:29:33.861Z,97409.75
2023-03-12T06:32:19.377Z,97249.03
2023-03-12T06:35:05.846Z,97466.28
2023-03-12T06:37:51.932Z,97412.91
2023-03-12T06:40:37.973Z,97453.78
2023-03-12T06:43:24.328Z,97292.72
2023-03-12T06:46:13.993Z,97369.31
2023-03-12T06:48:59.477Z,97384.84
2023-03-12T06:51:45.087Z,97291.38
2023-03-12T06:54:30.992Z,97495.06
2023-03-12T06:57:16.743Z,97494.22
2023-03-12T07:00:02.249Z,97215.53
2023-03-12T07:02:47.712Z,97506.38
2023-03-12T07:05:33.644Z,97519.81
2023-03-12T07:08:19.116Z,97414.97
2023-03-12T07:11:04.840Z,97521.25
2023-03-12T07:13:51.618Z,97442.41
2023-03-12T07:16:37.850Z,97510.66
2023-03-12T07:19:23.225Z,97477.84
2023-03-12T07:22:08.664Z,97517.00
2023-03-12T07:24:54.482Z,97475.56
2023-03-12T07:27:40.838Z,97507.75
2023-03-12T07:30:26.354Z,97297.47
2023-03-12T07:33:12.928Z,97509.44
2023-03-12T07:35:59.173Z,97534.97
2023-03-12T07:38:44.967Z,97310.53
2023-03-12T07:41:31.325Z,97536.09
2023-03-12T07:44:16.774Z,97548.16
2023-03-12T07:47:16.599Z,97525.63
2023-03-12T07:50:08.316Z,97364.56
2023-03-12T07:52:53.914Z,97329.44
2023-03-12T07:55:39.322Z,97533.16
2023-03-12T07:58:25.193Z,97540.47
2023-03-12T08:01:10.928Z,97532.34
2023-03-12T08:03:56.882Z,97503.66
2023-03-12T08:06:45.109Z,97503.94
2023-03-12T08:09:30.930Z,97324.69
2023-03-12T08:12:17.220Z,97453.94
2023-03-12T08:15:06.680Z,97403.53
2023-03-12T08:17:52.343Z,97584.94
2023-03-12T08:20:38.820Z,97407.19
2023-03-12T08:23:24.968Z,97559.41
2023-03-12T08:26:10.961Z,97413.19
2023-03-12T08:28:57.805Z,97506.44
2023-03-12T08:32:01.610Z,97558.03
2023-03-12T08:34:50.163Z,97574.19
2023-03-12T08:37:37.748Z,97564.00
2023-03-12T08:40:26.405Z,97563.31
2023-03-12T08:43:16.569Z,97429.97
2023-03-12T08:46:03.532Z,97562.22
2023-03-12T08:48:48.991Z,97590.75
2023-03-12T08:51:34.586Z,97585.78
2023-03-12T08:54:20.885Z,97556.53
2023-03-12T08:57:06.768Z,97574.13
2023-03-12T08:59:52.114Z,97511.53
2023-03-12T09:02:38.821Z,97571.91
2023-03-12T09:05:25.396Z,97555.03
2023-03-12T09:08:11.961Z,97571.91
2023-03-12T09:10:57.551Z,97609.41
2023-03-12T09:14:02.797Z,97613.94
2023-03-12T09:16:49.718Z,97627.34
2023-03-12T09:19:34.976Z,97506.25
2023-03-12T09:22:22.055Z,97621.09
2023-03-12T09:25:17.553Z,97625.97
2023-03-12T09:28:07.291Z,97619.53
2023-03-12T09:30:53.644Z,97547.28
2023-03-12T09:33:39.278Z,97614.72
2023-03-12T09:36:25.000Z,97526.72
2023-03-12T09:39:10.863Z,97582.06
2023-03-12T09:41:56.579Z,97612.88
2023-03-12T09:44:47.080Z,97623.53
2023-03-12T09:47:38.204Z,97633.00
2023-03-12T09:50:34.862Z,97619.59
2023-03-12T09:53:44.379Z,97664.19
2023-03-12T09:56:30.264Z,97402.16
2023-03-12T09:59:15.658Z,97409.47
2023-03-12T10:02:15.719Z,97630.16
2023-03-12T10:05:27.626Z,97605.59
2023-03-12T10:08:35.927Z,97609.66
2023-03-12T10:11:40.069Z,97617.78
2023-03-12T10:14:51.801Z,97637.91
2023-03-12T10:17:55.870Z,97617.13
2023-03-12T10:21:02.740Z,97656.63
2023-03-12T10:24:01.383Z,97658.47
2023-03-12T10:26:50.736Z,97552.25
2023-03-12T10:29:43.363Z,97584.09
2023-03-12T10:32:40.646Z,97450.97
2023-03-12T10:35:30.559Z,97647.38
2023-03-12T10:38:20.259Z,97420.75
2023-03-12T10:41:15.319Z,97548.31
2023-03-12T10:44:07.641Z,97609.66
2023-03-12T10:47:06.883Z,97534.56
2023-03-12T10:49:53.435Z,97623.25
2023-03-12T10:52:39.165Z,97521.63
2023-03-12T10:55:26.883Z,97616.69
2023-03-12T10:58:24.062Z,97647.00
2023-03-12T11:01:23.297Z,97565.97
2023-03-12T11:04:16.914Z,97522.47
2023-03-12T11:07:28.629Z,97587.63
2023-03-12T11:10:20.783Z,97422.84
2023-03-12T11:13:31.200Z,97589.41
2023-03-12T11:16:16.696Z,97618.94
2023-03-12T11:19:04.689Z,97465.88
2023-03-12T11:22:02.534Z,97618.19
2023-03-12T11:25:04.358Z,97620.75
2023-03-12T11:27:54.146Z,97528.09
2023-03-12T11:30:40.838Z,97501.09
2023-03-12T11:33:26.693Z,97620.75
2023-03-12T11:36:23.082Z,97408.09
2023-03-12T11:39:26.734Z,97615.47
2023-03-12T11:42:31.127Z,97430.34
2023-03-12T11:45:58.502Z,97613.06
2023-03-12T11:48:50.461Z,97551.69
2023-03-12T11:52:00.681Z,97624.75
2023-03-12T11:55:16.511Z,97628.38
2023-03-12T11:58:25.066Z,97617.41
2023-03-12T12:02:03.108Z,97581.69
2023-03-12T12:05:01.585Z,97618.69
2023-03-12T12:08:11.486Z,97566.59
2023-03-12T12:11:05.581Z,97584.44
2023-03-12T12:14:32.034Z,97614.69
2023-03-12T12:17:25.391Z,97619.28
2023-03-12T12:20:42.825Z,97652.22
2023-03-12T12:24:08.020Z,97590.38
2023-03-12T12:27:27.907Z,97476.59
2023-03-12T12:30:38.126Z,97611.69
2023-03-12T12:33:23.889Z,97627.06
2023-03-12T12:36:10.834Z,97523.47
2023-03-12T12:39:06.169Z,97505.53
2023-03-12T12:41:54.848Z,97633.28
2023-03-12T12:44:48.889Z,97615.00
2023-03-12T12:47:57.110Z,97649.03
2023-03-12T12:50:44.594Z,97590.84
2023-03-12T12:53:38.675Z,97449.81
2023-03-12T12:56:33.087Z,97656.03
2023-03-12T12:59:34.902Z,97617.59
2023-03-12T13:02:26.307Z,97640.28
2023-03-12T13:05:36.842Z,97654.56
2023-03-12T13:08:37.417Z,97668.63
2023-03-12T13:11:24.985Z,97620.31
2023-03-12T13:14:10.759Z,97644.66
2023-03-12T13:17:07.624Z,97498.16
2023-03-12T13:20:01.747Z,97675.75
2023-03-12T13:23:01.665Z,97651.22
2023-03-12T13:25:47.564Z,97678.88
2023-03-12T13:29:11.375Z,97655.78
2023-03-12T13:31:57.905Z,97517.53
2023-03-12T13:34:46.255Z,97634.22
2023-03-12T13:37:48.761Z,97672.22
2023-03-12T13:40:55.960Z,97622.31
2023-03-12T13:43:48.971Z,97679.03
2023-03-12T13:46:40.500Z,97606.81
2023-03-12T13:49:28.906Z,97608.97
2023-03-12T13:52:14.469Z,97717.88
2023-03-12T13:55:07.293Z,97699.97
2023-03-12T13:58:08.924Z,97693.72
2023-03-12T14:01:03.969Z,97495.28
2023-03-12T14:03:55.507Z,97701.97
2023-03-12T14:07:18.701Z,97711.66
2023-03-12T14:10:38.198Z,97699.94
2023-03-12T14:13:58.139Z,97711.25
2023-03-12T14:16:49.901Z,97651.91
2023-03-12T14:19:46.161Z,97620.56
2023-03-12T14:22:35.666Z,97725.91
2023-03-12T14:25:39.759Z,97718.59
2023-03-12T14:28:26.104Z,97660.53
2023-03-12T14:31:16.855Z,97721.91
2023-03-12T14:34:17.629Z,97722.59
2023-03-12T14:37:42.972Z,97742.56
2023-03-12T14:40:46.965Z,97746.78
2023-03-12T14:43:35.192Z,97710.50
2023-03-12T14:46:23.053Z,97749.16
2023-03-12T14:49:19.696Z,97756.31
2023-03-12T14:52:05.981Z,97571.75
2023-03-12T14:55:01.062Z,97770.19
2023-03-12T14:57:46.852Z,97731.34
2023-03-12T15:00:33.477Z,97708.63
2023-03-12T15:03:18.746Z,97717.94
2023-03-12T15:06:04.223Z,97616.63
2023-03-12T15:08:50.542Z,97807.50
2023-03-12T15:11:37.752Z,97783.16
2023-03-12T15:14:25.179Z,97767.75
2023-03-12T15:17:20.072Z,97609.22
2023-03-12T15:20:09.392Z,97780.75
2023-03-12T15:22:56.663Z,97734.53
2023-03-12T15:25:46.218Z,97696.75
2023-03-12T15:28:31.897Z,97780.50
2023-03-12T15:31:17.342Z,97788.03
2023-03-12T15:34:05.979Z,97788.78
2023-03-12T15:36:51.837Z,97589.84
2023-03-12T15:39:38.422Z,97833.78
2023-03-12T15:42:26.814Z,97785.63
2023-03-12T15:45:22.483Z,97712.84
2023-03-12T15:48:26.750Z,97671.41
2023-03-12T15:51:28.419Z,97655.22
2023-03-12T15:54:14.112Z,97803.75
2023-03-12T15:57:19.904Z,97803.34
2023-03-12T16:00:14.434Z,97848.56
2023-03-12T16:03:03.960Z,97783.41
2023-03-12T16:05:50.619Z,97857.81
2023-03-12T16:08:45.576Z,97806.84
2023-03-12T16:11:33.490Z,97816.34
2023-03-12T16:14:22.935Z,97679.16
2023-03-12T16:17:14.850Z,97649.63
2023-03-12T16:20:00.536Z,97798.84
2023-03-12T16:22:46.184Z,97877.16
2023-03-12T16:25:31.936Z,97855.88
2023-03-12T16:28:19.644Z,97869.00
2023-03-12T16:31:12.199Z,97676.59
2023-03-12T16:33:58.219Z,97728.03
2023-03-12T16:36:43.683Z,97903.09
2023-03-12T16:39:33.832Z,97883.97
2023-03-12T16:42:23.338Z,97884.63
2023-03-12T16:45:13.813Z,97851.22
2023-03-12T16:48:05.538Z,97900.47
2023-03-12T16:50:54.104Z,97688.53
2023-03-12T16:53:41.298Z,97916.22
2023-03-12T16:56:35.305Z,97826.19
2023-03-12T16:59:27.646Z,97878.13
2023-03-12T17:02:18.126Z,97868.22
2023-03-12T17:05:04.251Z,97726.47
2023-03-12T17:07:49.644Z,97914.41
2023-03-12T17:10:35.072Z,97968.28
2023-03-12T17:13:26.291Z,97965.75
2023-03-12T17:16:13.511Z,97913.63
2023-03-12T17:18:59.437Z,97852.38
2023-03-12T17:21:45.746Z,97777.34
2023-03-12T17:24:32.928Z,97964.06
2023-03-12T17:27:19.961Z,97960.94
2023-03-12T17:30:05.717Z,97964.19
2023-03-12T17:32:52.037Z,97812.31
2023-03-12T17:35:37.613Z,97932.84
2023-03-12T17:38:23.164Z,97975.09
2023-03-12T17:41:23.424Z,98000.59
2023-03-12T17:44:11.785Z,97990.38
2023-03-12T17:46:59.618Z,97849.91
2023-03-12T17:49:45.590Z,97984.41
2023-03-12T17:52:32.183Z,97958.50
2023-03-12T17:55:17.735Z,97992.84
2023-03-12T17:58:06.072Z,97943.47
2023-03-12T18:00:51.434Z,97803.06
2023-03-12T18:03:37.159Z,97848.44
2023-03-12T18:06:22.535Z,97987.63
2023-03-12T18:09:08.521Z,97965.38
2023-03-12T18:11:55.477Z,98007.28
2023-03-12T18:14:41.623Z,98042.16
2023-03-12T18:17:27.264Z,97957.38
2023-03-12T18:20:19.559Z,97850.97
2023-03-12T18:23:08.792Z,98026.22
2023-03-12T18:25:54.351Z,97799.00
2023-03-12T18:28:39.721Z,98013.38
2023-03-12T18:31:25.183Z,97999.09
2023-03-12T18:34:10.648Z,97826.41
2023-03-12T18:36:56.208Z,97833.44
2023-03-12T18:39:41.548Z,97880.84
2023-03-12T18:42:27.000Z,97870.75
2023-03-12T18:45:12.895Z,98036.56
2023-03-12T18:47:58.414Z,98062.66
2023-03-12T18:50:44.054Z,98011.94
2023-03-12T18:53:29.598Z,98070.22
2023-03-12T18:56:15.671Z,98006.88
2023-03-12T18:59:01.107Z,98052.91
2023-03-12T19:01:47.254Z,97886.50
2023-03-12T19:04:33.873Z,98067.41
2023-03-12T19:07:19.843Z,98041.53
2023-03-12T19:10:07.020Z,97870.31
2023-03-12T19:12:54.167Z,98015.50
2023-03-12T19:15:39.749Z,98062.56
2023-03-12T19:18:25.626Z,98092.38
2023-03-12T19:21:11.276Z,98026.00
2023-03-12T19:23:57.075Z,98072.38
2023-03-12T19:26:42.654Z,98068.94
2023-03-12T19:29:28.505Z,98066.78
2023-03-12T19:32:14.773Z,98066.03
2023-03-12T19:35:01.460Z,98059.72
2023-03-12T19:37:46.687Z,98048.34
2023-03-12T19:40:33.351Z,98050.22
2023-03-12T19:43:19.540Z,97867.63
2023-03-12T19:46:05.164Z,97966.09
2023-03-12T19:48:50.964Z,98089.25
2023-03-12T19:51:36.395Z,98041.31
2023-03-12T19:54:21.952Z,97914.94
2023-03-12T19:57:07.353Z,98014.69
2023-03-12T19:59:52.862Z,97946.22
2023-03-12T20:02:39.719Z,98091.63
2023-03-12T20:05:25.645Z,98063.34
2023-03-12T20:08:11.560Z,97902.28
2023-03-12T20:11:05.305Z,98045.81
2023-03-12T20:13:50.581Z,98093.78
2023-03-12T20:16:36.296Z,98041.00
2023-03-12T20:19:21.743Z,98073.69
2023-03-12T20:22:07.668Z,98073.69
2023-03-12T20:24:54.191Z,97845.69
2023-03-12T20:27:39.623Z,98117.06
2023-03-12T20:30:25.611Z,97981.66
2023-03-12T20:33:11.593Z,98116.22
2023-03-12T20:35:57.282Z,97933.94
2023-03-12T20:38:43.563Z,98086.88
2023-03-12T20:41:29.172Z,97913.63
2023-03-12T20:44:14.821Z,98124.97
2023-03-12T20:47:00.241Z,98127.91
2023-03-12T20:49:45.991Z,98137.38
2023-03-12T20:52:31.287Z,97924.03
2023-03-12T20:55:18.872Z,98086.38
2023-03-12T20:58:04.633Z,98090.25
2023-03-12T21:00:51.036Z,98132.47
2023-03-12T21:03:36.549Z,97927.81
2023-03-12T21:06:21.926Z,98135.88
2023-03-12T21:09:07.334Z,98031.22
2023-03-12T21:11:52.934Z,97911.72
2023-03-12T21:14:39.809Z,98155.25
2023-03-12T21:17:25.591Z,98134.22
2023-03-12T21:20:14.274Z,97974.13
2023-03-12T21:23:00.952Z,98134.72
2023-03-12T21:25:46.413Z,98030.91
2023-03-12T21:28:32.159Z,97935.09
2023-03-12T21:31:18.391Z,97937.09
2023-03-12T21:34:03.759Z,98131.16
2023-03-12T21:36:49.123Z,98066.06
2023-03-12T21:39:34.925Z,98110.94
2023-03-12T21:42:21.232Z,97909.50
2023-03-12T21:45:07.959Z,98038.09
2023-03-12T21:47:54.029Z,97947.63
2023-03-12T21:50:39.351Z,97936.88
2023-03-12T21:53:24.688Z,98142.25
2023-03-12T21:56:11.006Z,97953.03
2023-03-12T21:58:57.297Z,97936.34
2023-03-12T22:01:43.155Z,98101.50
2023-03-12T22:04:28.997Z,98161.75
2023-03-12T22:07:14.526Z,98083.63
2023-03-12T22:10:00.462Z,98150.53
2023-03-12T22:12:46.506Z,98156.00
2023-03-12T22:15:31.936Z,98116.25
2023-03-12T22:18:17.451Z,98158.06
2023-03-12T22:21:05.150Z,97935.88
2023-03-12T22:23:52.829Z,98115.97
2023-03-12T22:26:38.194Z,98118.19
2023-03-12T22:29:23.550Z,98144.59
2023-03-12T22:32:09.180Z,98129.66
2023-03-12T22:34:54.522Z,98126.16
2023-03-12T22:37:40.035Z,97953.13
2023-03-12T22:40:25.871Z,98148.47
2023-03-12T22:43:11.052Z,98077.06
2023-03-12T22:45:56.469Z,98169.00
2023-03-12T22:48:46.035Z,98034.31
2023-03-12T22:51:33.049Z,98132.38
2023-03-12T22:54:18.642Z,98137.06
2023-03-12T22:57:03.957Z,97953.03
2023-03-12T22:59:49.231Z,98164.50
2023-03-12T23:02:35.354Z,98134.13
2023-03-12T23:05:20.737Z,98089.88
2023-03-12T23:08:06.234Z,98104.16
2023-03-12T23:11:00.717Z,98065.59
2023-03-12T23:13:48.263Z,98141.97
2023-03-12T23:16:34.089Z,97920.88
2023-03-12T23:19:20.657Z,98129.69
2023-03-12T23:22:07.074Z,97983.81
2023-03-12T23:24:53.244Z,97978.13
2023-03-12T23:27:38.640Z,98003.69
2023-03-12T23:30:23.921Z,98136.84
2023-03-12T23:33:09.286Z,97995.50
2023-03-12T23:35:58.762Z,98137.06
2023-03-12T23:38:45.235Z,98111.50
2023-03-12T23:41:30.606Z,97956.66
2023-03-12T23:44:16.235Z,98142.00
2023-03-12T23:47:01.729Z,97932.81
2023-03-12T23:49:47.677Z,98152.56
2023-03-12T23:52:33.255Z,98100.28
2023-03-12T23:55:18.555Z,98161.19
2023-03-12T23:58:04.092Z,98073.25
